Time;durP1;ratioP1;P1;durP2;ratioP2;P2;SDS_P1;SDS_P2;PMS_P1;PMS_P2;Temp;Humidity;BMP_temperature;BMP_pressure;BME280_temperature;BME280_humidity;BME280_pressure;Samples;Min_cycle;Max_cycle;Signal;HPM_P1;HPM_P2
2022/09/17 00:00:51;;;;;;;5.75;1.65;;;11.60;86.90;;;;;;5076388;28;20056;-59
2022/09/17 00:03:18;;;;;;;5.40;1.50;;;11.60;87.30;;;;;;5074345;28;20104;-58
2022/09/17 00:05:44;;;;;;;5.72;1.40;;;11.60;87.50;;;;;;5075668;28;20055;-59
2022/09/17 00:08:13;;;;;;;8.38;1.17;;;11.50;87.60;;;;;;5076064;28;20101;-56
2022/09/17 00:10:41;;;;;;;6.15;1.00;;;11.50;89.00;;;;;;5075663;28;20108;-59
2022/09/17 00:13:08;;;;;;;2.40;1.00;;;11.50;89.70;;;;;;5075998;28;20097;-60
2022/09/17 00:15:42;;;;;;;7.93;0.93;;;11.40;89.60;;;;;;5076050;28;20036;-58
2022/09/17 00:18:09;;;;;;;3.67;1.25;;;11.40;90.10;;;;;;5074900;28;20037;-59
2022/09/17 00:20:43;;;;;;;10.35;2.17;;;11.40;90.00;;;;;;5074853;28;20105;-60
2022/09/17 00:23:10;;;;;;;6.13;1.23;;;11.30;90.30;;;;;;5075356;28;20142;-59
2022/09/17 00:25:42;;;;;;;5.38;1.05;;;11.30;90.10;;;;;;5077761;28;20029;-61
2022/09/17 00:28:09;;;;;;;5.13;1.10;;;11.30;90.60;;;;;;5061496;28;20053;-59
2022/09/17 00:30:42;;;;;;;4.53;1.00;;;11.20;90.30;;;;;;5078461;28;20024;-62
2022/09/17 00:33:13;;;;;;;2.72;0.80;;;11.20;91.00;;;;;;5079214;28;20092;-59
2022/09/17 00:35:40;;;;;;;7.25;1.02;;;11.20;90.90;;;;;;5079230;28;20092;-60
2022/09/17 00:38:07;;;;;;;8.25;1.02;;;11.10;91.00;;;;;;5078734;28;20110;-59
2022/09/17 00:40:34;;;;;;;3.33;0.90;;;11.20;91.60;;;;;;5079553;28;20045;-60
2022/09/17 00:43:01;;;;;;;5.70;0.77;;;11.10;91.40;;;;;;5079743;28;20045;-59
2022/09/17 00:45:28;;;;;;;3.00;0.82;;;11.10;91.50;;;;;;5078760;28;20033;-59
2022/09/17 00:48:00;;;;;;;4.03;0.85;;;11.10;91.80;;;;;;5079191;28;20075;-59
2022/09/17 00:50:40;;;;;;;1.77;0.73;;;11.10;91.80;;;;;;5078720;28;20036;-63
2022/09/17 00:53:12;;;;;;;2.10;0.80;;;11.00;92.20;;;;;;5079229;28;20092;-60
2022/09/17 00:56:01;;;;;;;8.27;1.17;;;11.00;92.90;;;;;;5062573;28;20031;-58
2022/09/17 00:58:27;;;;;;;5.45;0.77;;;11.00;92.10;;;;;;5058385;28;20072;-58
2022/09/17 01:00:54;;;;;;;3.95;0.95;;;11.00;92.00;;;;;;5073536;28;20083;-60
2022/09/17 01:03:21;;;;;;;2.92;1.20;;;11.00;91.80;;;;;;5079183;28;20037;-58
2022/09/17 01:05:54;;;;;;;7.38;1.02;;;11.10;91.90;;;;;;5078905;28;20055;-58
2022/09/17 01:08:27;;;;;;;11.13;0.80;;;11.10;92.50;;;;;;5079069;28;20028;-58
2022/09/17 01:11:26;;;;;;;6.10;0.95;;;11.00;92.30;;;;;;5078887;28;20068;-59
2022/09/17 01:14:22;;;;;;;5.50;0.82;;;11.10;93.20;;;;;;5058817;28;20033;-59
2022/09/17 01:16:55;;;;;;;4.90;2.17;;;11.00;93.80;;;;;;5076453;28;20168;-59
2022/09/17 01:20:16;;;;;;;6.83;1.20;;;11.00;93.50;;;;;;5078948;28;20089;-58
2022/09/17 01:22:42;;;;;;;3.20;0.90;;;11.00;94.20;;;;;;5045167;28;20053;-58
2022/09/17 01:26:04;;;;;;;1.85;1.02;;;11.00;93.30;;;;;;5057732;28;20025;-57
2022/09/17 01:28:36;;;;;;;7.80;0.77;;;11.00;94.40;;;;;;4992796;28;20329;-58
2022/09/17 01:31:21;;;;;;;7.18;1.00;;;11.00;93.70;;;;;;5065881;28;20045;-62
2022/09/17 01:34:02;;;;;;;4.47;1.10;;;10.90;94.50;;;;;;5078017;28;20055;-58
2022/09/17 01:36:47;;;;;;;4.80;0.90;;;10.80;95.50;;;;;;5077867;28;20025;-58
2022/09/17 01:39:19;;;;;;;6.90;1.40;;;10.70;96.90;;;;;;5077615;28;20075;-58
2022/09/17 01:41:53;;;;;;;4.43;1.35;;;10.70;96.10;;;;;;5077829;28;20025;-58
2022/09/17 01:44:26;;;;;;;;;;;10.70;96.10;;;;;;5078711;28;20059;-59
2022/09/17 01:47:13;;;;;;;3.95;0.93;;;10.60;98.10;;;;;;5077590;28;19915;-58
2022/09/17 01:49:46;;;;;;;8.10;1.50;;;10.70;96.40;;;;;;5077859;28;20029;-58
2022/09/17 01:52:13;;;;;;;2.78;1.05;;;10.60;96.20;;;;;;4730568;28;10000392;-59
2022/09/17 01:54:43;;;;;;;8.38;1.65;;;10.50;96.60;;;;;;5096080;28;20056;-58
2022/09/17 01:57:15;;;;;;;7.53;1.55;;;10.50;97.90;;;;;;5067706;28;20056;-58
2022/09/17 01:59:50;;;;;;;4.00;1.17;;;10.40;98.00;;;;;;5072334;28;20036;-59
2022/09/17 02:02:49;;;;;;;9.25;2.90;;;10.40;98.50;;;;;;5077083;28;20073;-58
2022/09/17 02:05:33;;;;;;;2.13;1.10;;;10.40;99.10;;;;;;5072323;28;20048;-57
2022/09/17 02:08:09;;;;;;;2.72;0.85;;;10.40;99.50;;;;;;5077521;28;20056;-58
2022/09/17 02:10:39;;;;;;;3.13;1.02;;;10.40;99.60;;;;;;5077305;28;20052;-59
2022/09/17 02:13:15;;;;;;;1.98;0.80;;;10.30;99.90;;;;;;5077128;28;20071;-59
2022/09/17 02:15:45;;;;;;;5.32;1.00;;;10.20;99.70;;;;;;5061731;28;20087;-60
2022/09/17 02:18:22;;;;;;;12.93;1.02;;;10.10;99.90;;;;;;5076809;28;20037;-60
2022/09/17 02:20:52;;;;;;;4.38;1.50;;;10.10;99.90;;;;;;5076996;28;20061;-59
2022/09/17 02:23:26;;;;;;;6.97;1.30;;;10.00;99.90;;;;;;5060451;28;20070;-60
2022/09/17 02:25:57;;;;;;;4.47;1.08;;;10.00;99.90;;;;;;5077094;28;20032;-60
2022/09/17 02:28:46;;;;;;;4.32;1.20;;;9.90;99.90;;;;;;5076956;28;20100;-60
2022/09/17 02:31:12;;;;;;;2.80;0.95;;;9.90;99.90;;;;;;5076888;28;20043;-59
2022/09/17 02:33:40;;;;;;;2.20;0.95;;;9.80;99.90;;;;;;5077054;28;20029;-59
2022/09/17 02:36:07;;;;;;;4.70;1.15;;;9.80;99.90;;;;;;5076389;28;20033;-60
2022/09/17 02:38:34;;;;;;;2.72;1.17;;;9.70;99.90;;;;;;5075841;28;20084;-59
2022/09/17 02:41:19;;;;;;;6.13;1.35;;;9.70;99.90;;;;;;5076977;28;20060;-59
2022/09/17 02:43:55;;;;;;;5.80;1.38;;;9.70;99.90;;;;;;5076235;28;20088;-58
2022/09/17 02:46:29;;;;;;;5.57;1.25;;;9.60;99.90;;;;;;5076436;28;20067;-60
2022/09/17 02:49:00;;;;;;;;;;;9.60;99.90;;;;;;5077043;28;20022;-60
2022/09/17 02:51:58;;;;;;;6.15;1.35;;;9.50;99.90;;;;;;5077075;28;19964;-59
2022/09/17 02:54:30;;;;;;;8.40;1.23;;;9.40;99.90;;;;;;5076771;28;20080;-59
2022/09/17 02:56:56;;;;;;;4.05;1.17;;;9.40;99.90;;;;;;5077200;28;20061;-57
2022/09/17 02:59:26;;;;;;;11.57;1.83;;;9.30;99.90;;;;;;5076970;28;20041;-59
2022/09/17 03:02:04;;;;;;;7.75;1.40;;;9.30;99.90;;;;;;5076463;28;20105;-57
2022/09/17 03:04:31;;;;;;;3.83;1.40;;;9.30;99.90;;;;;;5076273;28;20033;-59
2022/09/17 03:06:58;;;;;;;4.30;1.17;;;9.30;99.90;;;;;;5076335;28;20044;-59
2022/09/17 03:09:25;;;;;;;4.65;1.33;;;9.20;99.90;;;;;;5076442;28;20029;-58
2022/09/17 03:11:52;;;;;;;6.93;1.90;;;9.00;99.90;;;;;;5077102;28;20043;-60
2022/09/17 03:14:19;;;;;;;5.30;1.40;;;9.00;99.90;;;;;;5076601;28;20060;-58
2022/09/17 03:16:46;;;;;;;8.43;1.50;;;9.00;99.90;;;;;;5076765;28;20047;-58
2022/09/17 03:19:13;;;;;;;4.57;1.27;;;8.90;99.90;;;;;;5076867;28;20113;-59
2022/09/17 03:21:40;;;;;;;9.48;2.28;;;8.80;99.90;;;;;;5075987;28;20067;-60
2022/09/17 03:24:07;;;;;;;6.85;1.80;;;8.80;99.90;;;;;;5076804;28;20032;-59
2022/09/17 03:26:34;;;;;;;8.38;1.42;;;8.80;99.90;;;;;;5076740;28;20048;-58
2022/09/17 03:29:00;;;;;;;3.33;1.30;;;8.80;99.90;;;;;;5076342;28;20109;-58
2022/09/17 03:31:28;;;;;;;6.70;1.35;;;8.80;99.90;;;;;;5076552;28;20056;-60
2022/09/17 03:33:54;;;;;;;5.35;1.05;;;8.80;99.90;;;;;;5076757;28;20052;-58
2022/09/17 03:36:21;;;;;;;10.25;1.77;;;8.80;99.90;;;;;;5076414;28;20092;-59
2022/09/17 03:38:52;;;;;;;4.32;1.40;;;8.70;99.90;;;;;;5075967;28;20101;-58
2022/09/17 03:41:19;;;;;;;3.05;1.45;;;8.70;99.90;;;;;;5076667;28;20093;-58
2022/09/17 03:43:46;;;;;;;12.38;2.08;;;8.60;99.90;;;;;;5076494;28;20045;-59
2022/09/17 03:46:12;;;;;;;4.18;1.15;;;8.50;99.90;;;;;;5076370;28;20029;-60
2022/09/17 03:48:39;;;;;;;5.88;2.17;;;8.50;99.90;;;;;;5076667;28;20053;-59
2022/09/17 03:51:06;;;;;;;9.88;2.65;;;8.50;99.90;;;;;;5076457;28;20059;-59
2022/09/17 03:53:33;;;;;;;4.35;1.65;;;8.60;99.90;;;;;;5076270;28;20039;-58
2022/09/17 03:56:00;;;;;;;4.93;1.40;;;8.50;99.90;;;;;;5076293;28;20085;-57
2022/09/17 03:58:27;;;;;;;8.07;1.45;;;8.60;99.90;;;;;;5077432;28;20033;-58
2022/09/17 04:00:56;;;;;;;10.50;1.48;;;8.60;99.90;;;;;;5080182;28;20096;-57
2022/09/17 04:03:24;;;;;;;3.95;1.27;;;8.50;99.90;;;;;;5070646;28;20049;-57
2022/09/17 04:05:51;;;;;;;2.95;0.98;;;8.50;99.90;;;;;;5064969;28;20060;-60
2022/09/17 04:08:18;;;;;;;7.45;1.60;;;8.40;99.90;;;;;;5080114;28;20088;-60
2022/09/17 04:10:45;;;;;;;5.53;1.23;;;8.40;99.90;;;;;;5079965;28;20033;-58
2022/09/17 04:13:12;;;;;;;2.30;1.13;;;8.30;99.90;;;;;;5080260;28;20059;-59
2022/09/17 04:15:39;;;;;;;4.88;1.08;;;8.20;99.90;;;;;;5079358;28;20088;-59
2022/09/17 04:18:06;;;;;;;3.67;1.27;;;8.20;99.90;;;;;;5078624;28;20063;-59
2022/09/17 04:20:33;;;;;;;6.80;1.42;;;8.20;99.90;;;;;;5079991;28;20037;-57
2022/09/17 04:23:00;;;;;;;10.25;1.23;;;8.20;99.90;;;;;;5079541;28;20093;-59
2022/09/17 04:25:26;;;;;;;5.45;1.38;;;8.10;99.90;;;;;;5079934;28;20092;-59
2022/09/17 04:27:53;;;;;;;2.85;1.15;;;8.10;99.90;;;;;;5079169;28;20093;-60
2022/09/17 04:30:20;;;;;;;6.63;1.65;;;8.10;99.90;;;;;;5079707;28;20057;-60
2022/09/17 04:32:47;;;;;;;5.82;1.17;;;8.00;99.90;;;;;;5079598;28;20052;-59
2022/09/17 04:35:13;;;;;;;7.22;1.40;;;7.90;99.90;;;;;;5079691;28;20143;-60
2022/09/17 04:37:40;;;;;;;3.42;1.35;;;7.90;99.90;;;;;;5079430;28;20089;-59
2022/09/17 04:40:07;;;;;;;3.85;1.50;;;7.90;99.90;;;;;;5078892;28;20076;-59
2022/09/17 04:42:34;;;;;;;7.13;1.63;;;7.90;99.90;;;;;;5079314;28;20043;-60
2022/09/17 04:45:01;;;;;;;9.63;1.95;;;7.90;99.90;;;;;;5079495;28;20029;-59
2022/09/17 04:47:28;;;;;;;2.25;1.10;;;7.90;99.90;;;;;;5079347;28;20036;-60
2022/09/17 04:49:55;;;;;;;7.70;1.58;;;7.80;99.90;;;;;;5079523;28;20093;-60
2022/09/17 04:52:21;;;;;;;3.45;1.33;;;7.80;99.90;;;;;;5079048;28;20020;-59
2022/09/17 04:54:52;;;;;;;3.92;1.30;;;7.80;99.90;;;;;;5079293;28;20045;-59
2022/09/17 04:57:18;;;;;;;5.93;2.65;;;7.80;99.90;;;;;;5079093;28;20093;-59
2022/09/17 04:59:45;;;;;;;10.10;1.80;;;8.00;99.90;;;;;;5078943;28;20031;-59
2022/09/17 05:02:12;;;;;;;2.53;1.25;;;8.00;99.90;;;;;;5079173;28;20039;-60
2022/09/17 05:04:39;;;;;;;6.93;1.48;;;8.00;99.90;;;;;;5077034;28;20105;-60
2022/09/17 05:07:05;;;;;;;4.00;1.13;;;8.00;99.90;;;;;;5078801;28;20048;-59
2022/09/17 05:09:36;;;;;;;9.02;1.58;;;8.00;99.90;;;;;;5078541;28;20056;-60
2022/09/17 05:12:03;;;;;;;2.42;1.25;;;7.90;99.90;;;;;;5079139;28;20048;-57
2022/09/17 05:14:30;;;;;;;10.13;1.77;;;7.80;99.90;;;;;;5078070;28;20116;-60
2022/09/17 05:16:57;;;;;;;4.30;1.30;;;7.70;99.90;;;;;;5078706;28;20064;-59
2022/09/17 05:19:23;;;;;;;4.93;1.88;;;7.70;99.90;;;;;;5078436;28;20080;-60
2022/09/17 05:21:50;;;;;;;5.38;1.52;;;7.60;99.90;;;;;;5078731;28;20033;-58
2022/09/17 05:24:17;;;;;;;6.78;1.77;;;7.70;99.90;;;;;;5078475;28;20104;-59
2022/09/17 05:26:43;;;;;;;3.05;1.27;;;7.70;99.90;;;;;;5078578;28;20054;-59
2022/09/17 05:29:10;;;;;;;5.82;1.70;;;7.60;99.90;;;;;;5078472;28;20073;-59
2022/09/17 05:31:37;;;;;;;7.75;1.70;;;7.50;99.90;;;;;;5078601;28;20040;-59
2022/09/17 05:34:04;;;;;;;9.30;1.77;;;7.50;99.90;;;;;;5077716;28;20033;-59
2022/09/17 05:36:31;;;;;;;7.60;1.73;;;7.50;99.90;;;;;;5078374;28;20060;-59
2022/09/17 05:38:57;;;;;;;4.70;2.17;;;7.40;99.90;;;;;;5078311;28;20041;-59
2022/09/17 05:41:24;;;;;;;2.90;1.20;;;7.40;99.90;;;;;;5078294;28;20104;-59
2022/09/17 05:43:51;;;;;;;4.43;1.27;;;7.40;99.90;;;;;;5078306;28;20096;-63
2022/09/17 05:46:17;;;;;;;3.58;1.15;;;7.30;99.90;;;;;;5077579;28;20121;-58
2022/09/17 05:48:44;;;;;;;8.80;1.38;;;7.30;99.90;;;;;;5078252;28;20109;-57
2022/09/17 05:51:11;;;;;;;2.65;1.27;;;7.30;99.90;;;;;;5078041;28;20096;-58
2022/09/17 05:53:38;;;;;;;4.70;1.23;;;7.30;99.90;;;;;;5078244;28;20033;-57
2022/09/17 05:56:05;;;;;;;5.57;1.00;;;7.30;99.90;;;;;;5077934;28;20033;-58
2022/09/17 05:58:33;;;;;;;3.97;1.23;;;7.30;99.90;;;;;;5077610;28;20057;-59
2022/09/17 06:01:00;;;;;;;5.60;1.52;;;7.30;99.90;;;;;;5076788;28;20037;-59
2022/09/17 06:03:27;;;;;;;7.80;1.60;;;7.30;99.90;;;;;;5077676;28;20036;-58
2022/09/17 06:05:58;;;;;;;6.18;1.42;;;7.40;99.90;;;;;;5077601;28;20052;-60
2022/09/17 06:08:25;;;;;;;5.90;1.10;;;7.30;99.90;;;;;;5077369;28;20040;-59
2022/09/17 06:10:52;;;;;;;4.32;2.95;;;7.40;99.90;;;;;;5077075;28;20025;-59
2022/09/17 06:13:19;;;;;;;4.22;1.30;;;7.40;99.90;;;;;;5077185;28;20052;-58
2022/09/17 06:15:50;;;;;;;4.68;1.23;;;7.30;99.90;;;;;;5076637;28;20130;-59
2022/09/17 06:18:17;;;;;;;4.05;1.33;;;7.40;99.90;;;;;;5060274;28;20091;-59
2022/09/17 06:20:52;;;;;;;4.47;1.55;;;7.40;99.90;;;;;;5076524;28;20036;-63
2022/09/17 06:23:19;;;;;;;2.55;1.15;;;7.50;99.90;;;;;;5076256;28;20057;-59
2022/09/17 06:25:56;;;;;;;2.53;1.30;;;7.50;99.90;;;;;;5077210;28;20045;-58
2022/09/17 06:28:27;;;;;;;8.30;1.60;;;7.50;99.90;;;;;;5068516;28;20032;-58
2022/09/17 06:30:56;;;;;;;9.88;1.55;;;7.60;99.90;;;;;;5076354;28;20029;-58
2022/09/17 06:33:22;;;;;;;3.83;1.27;;;7.60;99.90;;;;;;5077254;28;20100;-58
2022/09/17 06:35:59;;;;;;;4.68;1.42;;;7.70;99.90;;;;;;5076831;28;20033;-59
2022/09/17 06:38:30;;;;;;;6.38;1.55;;;7.80;99.90;;;;;;5066693;28;20033;-59
2022/09/17 06:40:57;;;;;;;4.90;1.65;;;7.70;99.90;;;;;;5076115;28;20072;-57
2022/09/17 06:43:24;;;;;;;4.70;1.23;;;7.70;99.90;;;;;;5076408;28;20093;-58
2022/09/17 06:45:52;;;;;;;3.17;1.08;;;7.70;99.90;;;;;;5076851;28;20068;-59
2022/09/17 06:48:20;;;;;;;8.45;1.40;;;7.80;99.90;;;;;;5077060;28;20094;-59
2022/09/17 06:50:47;;;;;;;7.60;1.20;;;7.90;99.90;;;;;;5074300;28;20089;-61
2022/09/17 06:53:14;;;;;;;2.63;1.05;;;8.00;99.90;;;;;;4723480;28;10000696;-59
2022/09/17 06:55:41;;;;;;;7.38;1.58;;;8.10;99.90;;;;;;5074478;28;20039;-59
2022/09/17 06:58:07;;;;;;;2.88;1.00;;;8.10;99.90;;;;;;5073457;28;20049;-58
2022/09/17 07:00:35;;;;;;;3.35;1.42;;;8.20;99.90;;;;;;5073667;28;20071;-59
2022/09/17 07:03:02;;;;;;;11.65;1.30;;;8.30;99.90;;;;;;5073543;28;20029;-58
2022/09/17 07:05:29;;;;;;;5.00;2.10;;;8.30;99.90;;;;;;5074877;28;20032;-60
2022/09/17 07:07:55;;;;;;;7.97;1.60;;;8.40;99.90;;;;;;5050035;28;20057;-59
2022/09/17 07:10:22;;;;;;;1.98;1.17;;;8.40;99.90;;;;;;5048754;28;20053;-59
2022/09/17 07:12:49;;;;;;;4.55;2.05;;;8.50;99.90;;;;;;5048861;28;20049;-59
2022/09/17 07:15:16;;;;;;;3.80;1.55;;;8.60;99.90;;;;;;5046904;28;20393;-60
2022/09/17 07:17:43;;;;;;;6.43;1.52;;;8.60;99.90;;;;;;5048232;28;20106;-59
2022/09/17 07:20:10;;;;;;;4.15;1.13;;;8.70;99.90;;;;;;5048109;28;20111;-59
2022/09/17 07:22:37;;;;;;;3.45;1.27;;;8.80;99.90;;;;;;5049090;28;20045;-60
2022/09/17 07:25:04;;;;;;;4.75;1.88;;;8.90;99.90;;;;;;5031052;28;20045;-60
2022/09/17 07:27:31;;;;;;;3.50;1.98;;;8.90;99.90;;;;;;5037559;28;20124;-58
2022/09/17 07:29:58;;;;;;;4.88;1.25;;;9.00;99.90;;;;;;5049145;28;20048;-59
2022/09/17 07:32:25;;;;;;;4.10;2.03;;;9.10;99.90;;;;;;5050697;28;20044;-60
2022/09/17 07:34:52;;;;;;;10.27;1.73;;;9.20;99.90;;;;;;5052315;28;20116;-59
2022/09/17 07:37:20;;;;;;;8.88;1.60;;;9.30;99.90;;;;;;5053336;28;20555;-58
2022/09/17 07:39:47;;;;;;;7.65;1.42;;;9.40;99.90;;;;;;5052741;28;20120;-59
2022/09/17 07:42:13;;;;;;;4.07;1.83;;;9.40;99.90;;;;;;5053029;28;20064;-60
2022/09/17 07:44:40;;;;;;;5.78;1.55;;;9.40;99.90;;;;;;5052275;28;20063;-59
2022/09/17 07:47:08;;;;;;;4.13;1.48;;;9.50;99.90;;;;;;5051966;28;20140;-60
2022/09/17 07:49:35;;;;;;;6.25;1.52;;;9.60;99.90;;;;;;5051639;28;20053;-59
2022/09/17 07:52:05;;;;;;;6.70;1.35;;;9.70;99.90;;;;;;5051743;28;20040;-59
2022/09/17 07:54:37;;;;;;;4.82;1.50;;;9.80;99.90;;;;;;5045546;28;20045;-60
2022/09/17 07:57:04;;;;;;;8.23;1.30;;;9.90;99.90;;;;;;5050635;28;20064;-59
2022/09/17 07:59:31;;;;;;;8.57;1.40;;;10.00;99.90;;;;;;5044592;28;20059;-59
2022/09/17 08:01:58;;;;;;;8.68;2.38;;;10.00;99.90;;;;;;5050371;28;20045;-59
2022/09/17 08:04:25;;;;;;;6.70;1.63;;;10.00;99.90;;;;;;5048215;28;20055;-60
2022/09/17 08:06:52;;;;;;;7.03;1.65;;;10.10;99.90;;;;;;5052809;28;20124;-60
2022/09/17 08:09:19;;;;;;;17.00;1.65;;;10.10;99.90;;;;;;5068369;28;20028;-59
2022/09/17 08:11:46;;;;;;;8.70;1.98;;;10.20;99.90;;;;;;5076220;28;20055;-58
2022/09/17 08:14:22;;;;;;;7.20;2.08;;;10.30;99.90;;;;;;5075990;28;20040;-60
2022/09/17 08:16:55;;;;;;;6.60;1.70;;;10.40;99.90;;;;;;5075973;28;20072;-58
2022/09/17 08:19:23;;;;;;;5.55;1.85;;;10.60;99.90;;;;;;5076746;28;20045;-57
2022/09/17 08:21:51;;;;;;;6.47;1.60;;;10.70;99.90;;;;;;5076360;28;20219;-60
2022/09/17 08:24:17;;;;;;;5.22;3.17;;;10.90;99.90;;;;;;5076904;28;20033;-60
2022/09/17 08:26:44;;;;;;;4.93;1.02;;;11.00;99.90;;;;;;5075307;28;20063;-59
2022/09/17 08:29:11;;;;;;;4.88;1.50;;;11.00;99.90;;;;;;5076095;28;20208;-59
2022/09/17 08:31:38;;;;;;;4.07;1.10;;;11.10;99.90;;;;;;5076364;28;20035;-59
2022/09/17 08:34:08;;;;;;;6.65;1.50;;;11.30;99.90;;;;;;5076551;28;20071;-60
2022/09/17 08:36:35;;;;;;;4.75;1.08;;;11.40;99.90;;;;;;5059767;28;20068;-62
2022/09/17 08:39:02;;;;;;;4.93;1.25;;;11.60;99.90;;;;;;5076364;28;20029;-58
2022/09/17 08:41:50;;;;;;;4.15;0.90;;;11.70;99.90;;;;;;5074799;28;20075;-60
2022/09/17 08:44:20;;;;;;;2.03;1.10;;;11.80;98.80;;;;;;5072905;28;20104;-59
2022/09/17 08:46:51;;;;;;;5.65;1.05;;;11.80;99.90;;;;;;5075049;28;20060;-60
2022/09/17 08:49:40;;;;;;;4.38;0.93;;;12.00;99.90;;;;;;5075941;28;20037;-57
2022/09/17 08:52:28;;;;;;;4.45;1.15;;;12.10;99.30;;;;;;5075206;28;20124;-59
2022/09/17 08:55:22;;;;;;;3.22;0.77;;;12.20;97.00;;;;;;5075954;28;20033;-60
2022/09/17 08:58:11;;;;;;;4.20;0.85;;;12.30;94.70;;;;;;5074642;28;20037;-59
2022/09/17 09:00:47;;;;;;;6.03;0.88;;;12.30;94.10;;;;;;5076153;28;20037;-59
2022/09/17 09:03:33;;;;;;;5.53;0.90;;;12.40;92.50;;;;;;5065738;28;20033;-59
2022/09/17 09:05:59;;;;;;;5.05;1.60;;;12.50;95.00;;;;;;5075506;28;20101;-58
2022/09/17 09:08:35;;;;;;;7.68;1.70;;;12.60;95.00;;;;;;5075359;28;20052;-59
2022/09/17 09:11:04;;;;;;;2.58;0.52;;;12.90;92.00;;;;;;5075672;28;20181;-59
2022/09/17 09:13:35;;;;;;;4.38;0.93;;;13.20;90.50;;;;;;5059211;28;20036;-59
2022/09/17 09:16:06;;;;;;;4.18;0.57;;;13.50;88.20;;;;;;5058693;28;20043;-58
2022/09/17 09:18:35;;;;;;;3.58;1.13;;;13.60;84.90;;;;;;5059015;28;20121;-59
2022/09/17 09:21:17;;;;;;;5.20;1.00;;;13.90;90.80;;;;;;5058354;28;20053;-59
2022/09/17 09:24:02;;;;;;;3.83;0.63;;;14.20;81.00;;;;;;5074085;28;20028;-58
2022/09/17 09:26:45;;;;;;;4.07;0.60;;;14.40;78.80;;;;;;5058750;28;20072;-59
2022/09/17 09:29:33;;;;;;;6.43;1.00;;;14.20;76.00;;;;;;5065289;28;20037;-59
2022/09/17 09:32:09;;;;;;;4.65;1.05;;;14.00;76.90;;;;;;5074877;28;20033;-60
2022/09/17 09:34:42;;;;;;;2.63;1.00;;;14.30;77.40;;;;;;5076136;28;20060;-59
2022/09/17 09:37:27;;;;;;;4.85;0.82;;;14.70;81.70;;;;;;5056210;28;20072;-58
2022/09/17 09:39:54;;;;;;;6.93;1.17;;;14.90;77.20;;;;;;5075158;28;20067;-59
2022/09/17 09:42:27;;;;;;;4.10;1.15;;;15.00;83.30;;;;;;5039495;28;20033;-60
2022/09/17 09:44:57;;;;;;;8.17;1.20;;;14.90;79.30;;;;;;5075293;28;20067;-59
2022/09/17 09:47:38;;;;;;;9.27;1.00;;;14.70;80.80;;;;;;5058472;28;20025;-59
2022/09/17 09:50:11;;;;;;;3.55;0.98;;;14.40;78.80;;;;;;5073787;28;20108;-59
2022/09/17 09:52:59;;;;;;;3.95;0.93;;;14.20;79.00;;;;;;5073888;28;20049;-59
2022/09/17 09:56:04;;;;;;;6.38;1.17;;;14.10;80.80;;;;;;5074471;28;20375;-58
2022/09/17 09:58:37;;;;;;;5.75;1.63;;;13.90;79.20;;;;;;5075279;28;20041;-59
2022/09/17 10:01:13;;;;;;;9.77;1.45;;;13.80;81.50;;;;;;5074828;28;20283;-58
2022/09/17 10:03:41;;;;;;;5.85;1.30;;;13.90;82.60;;;;;;5073875;28;20025;-58
2022/09/17 10:06:09;;;;;;;1.20;0.50;;;13.80;81.60;;;;;;5074856;28;20097;-60
2022/09/17 10:08:37;;;;;;;1.00;0.68;;;14.00;80.00;;;;;;5073896;28;20088;-59
2022/09/17 10:11:10;;;;;;;1.30;0.50;;;14.10;82.50;;;;;;5074057;28;20116;-60
2022/09/17 10:13:37;;;;;;;2.10;0.50;;;14.10;82.40;;;;;;5074216;28;20021;-58
2022/09/17 10:16:17;;;;;;;1.40;0.70;;;14.30;81.60;;;;;;5073685;28;20317;-58
2022/09/17 10:18:45;;;;;;;9.90;1.15;;;14.30;80.80;;;;;;5072992;28;20060;-59
2022/09/17 10:21:20;;;;;;;6.78;0.82;;;14.30;77.40;;;;;;5073304;28;20155;-60
2022/09/17 10:23:46;;;;;;;2.70;0.80;;;14.20;80.50;;;;;;5073678;28;20040;-61
2022/09/17 10:26:27;;;;;;;4.65;0.80;;;14.30;82.70;;;;;;5074047;28;20101;-60
2022/09/17 10:28:58;;;;;;;11.23;2.10;;;14.40;79.20;;;;;;5075052;28;20028;-59
2022/09/17 10:31:24;;;;;;;3.42;0.80;;;14.50;80.10;;;;;;5058091;28;20037;-59
2022/09/17 10:34:01;;;;;;;2.72;0.50;;;14.50;81.00;;;;;;5074496;28;20063;-58
2022/09/17 10:36:45;;;;;;;2.55;0.75;;;14.60;80.80;;;;;;5073692;28;20069;-60
2022/09/17 10:39:43;;;;;;;2.70;0.67;;;14.70;79.00;;;;;;5067778;28;20036;-60
2022/09/17 10:42:17;;;;;;;3.13;0.80;;;14.70;79.90;;;;;;5071499;28;20318;-58
2022/09/17 10:44:51;;;;;;;3.08;0.80;;;14.70;77.70;;;;;;5073028;28;20051;-59
2022/09/17 10:47:28;;;;;;;5.32;0.60;;;14.80;78.60;;;;;;5073927;28;20097;-59
2022/09/17 10:50:19;;;;;;;4.63;0.65;;;14.70;77.60;;;;;;5056589;28;20048;-59
2022/09/17 10:52:50;;;;;;;0.80;0.57;;;14.60;79.00;;;;;;5068070;28;20108;-58
2022/09/17 10:55:33;;;;;;;4.25;0.50;;;14.70;79.20;;;;;;5072307;28;20051;-58
2022/09/17 10:58:08;;;;;;;4.30;0.70;;;14.70;76.90;;;;;;5071130;28;20152;-59
2022/09/17 11:00:51;;;;;;;2.47;0.55;;;14.80;78.70;;;;;;5070949;28;20040;-59
2022/09/17 11:03:44;;;;;;;2.72;0.57;;;14.70;76.60;;;;;;5069929;28;20124;-59
2022/09/17 11:06:33;;;;;;;4.00;0.70;;;14.80;79.50;;;;;;5069265;28;20416;-59
2022/09/17 11:09:22;;;;;;;5.43;0.70;;;15.00;79.90;;;;;;5071029;28;20036;-59
2022/09/17 11:12:22;;;;;;;3.85;0.77;;;15.10;75.00;;;;;;5072649;28;20067;-59
2022/09/17 11:14:59;;;;;;;6.13;0.55;;;15.10;76.40;;;;;;5072111;28;20066;-62
2022/09/17 11:17:56;;;;;;;1.33;0.52;;;15.10;78.40;;;;;;5072888;28;20064;-60
2022/09/17 11:20:31;;;;;;;1.95;0.50;;;15.10;74.40;;;;;;5069132;28;20032;-58
2022/09/17 11:23:40;;;;;;;4.32;0.68;;;15.00;75.70;;;;;;5073843;28;20112;-59
2022/09/17 11:26:31;;;;;;;3.10;0.60;;;15.00;76.00;;;;;;5073186;28;20033;-59
2022/09/17 11:29:30;;;;;;;3.83;0.60;;;15.00;74.80;;;;;;5073279;28;20043;-58
2022/09/17 11:32:00;;;;;;;4.00;0.65;;;15.00;73.20;;;;;;5067920;28;20032;-58
2022/09/17 11:34:34;;;;;;;5.72;1.15;;;15.10;74.70;;;;;;5072093;28;20045;-59
2022/09/17 11:37:12;;;;;;;1.85;0.73;;;15.10;75.30;;;;;;5071562;28;20063;-58
2022/09/17 11:39:56;;;;;;;1.75;0.60;;;15.10;75.20;;;;;;5073462;28;20053;-57
2022/09/17 11:42:56;;;;;;;6.13;0.80;;;15.10;72.90;;;;;;5072291;28;20101;-59
2022/09/17 11:45:52;;;;;;;4.95;0.70;;;15.20;73.40;;;;;;5058810;28;20029;-58
2022/09/17 11:48:20;;;;;;;3.15;1.13;;;15.20;73.10;;;;;;5069732;28;20075;-60
2022/09/17 11:50:49;;;;;;;2.03;0.60;;;15.30;74.20;;;;;;5071989;28;20048;-56
2022/09/17 11:53:31;;;;;;;4.07;0.43;;;15.30;73.60;;;;;;5071329;28;20124;-60
2022/09/17 11:56:44;;;;;;;1.67;0.50;;;15.40;73.80;;;;;;5072768;28;20039;-58
2022/09/17 11:59:34;;;;;;;3.13;0.98;;;15.40;73.90;;;;;;5071709;28;20029;-58
2022/09/17 12:02:08;;;;;;;4.28;0.85;;;15.50;75.30;;;;;;5055364;28;20104;-58
2022/09/17 12:05:06;;;;;;;3.58;0.70;;;15.70;74.70;;;;;;5068962;28;20029;-59
2022/09/17 12:07:40;;;;;;;2.75;0.60;;;15.80;73.40;;;;;;5068256;28;20088;-59
2022/09/17 12:10:25;;;;;;;2.83;0.90;;;15.90;74.40;;;;;;5072752;28;20040;-60
2022/09/17 12:12:56;;;;;;;1.52;0.90;;;16.00;75.10;;;;;;5073245;28;20061;-59
2022/09/17 12:15:24;;;;;;;3.67;0.80;;;16.10;74.10;;;;;;5072697;28;20033;-60
2022/09/17 12:18:15;;;;;;;4.68;0.68;;;16.10;74.80;;;;;;5055774;28;20088;-60
2022/09/17 12:21:00;;;;;;;4.22;1.20;;;16.10;72.20;;;;;;5075439;28;20049;-60
2022/09/17 12:23:31;;;;;;;3.00;0.60;;;16.20;74.60;;;;;;5075818;28;20052;-58
2022/09/17 12:26:16;;;;;;;3.92;1.00;;;16.10;71.90;;;;;;5075780;28;20044;-61
2022/09/17 12:28:51;;;;;;;3.25;0.85;;;16.10;71.50;;;;;;5076244;28;20057;-58
2022/09/17 12:31:39;;;;;;;1.42;0.75;;;16.10;69.90;;;;;;5076151;28;20099;-60
2022/09/17 12:34:33;;;;;;;4.32;0.80;;;16.00;68.70;;;;;;5075886;28;20032;-59
2022/09/17 12:37:06;;;;;;;5.30;0.88;;;15.90;69.20;;;;;;5056458;28;20049;-60
2022/09/17 12:39:44;;;;;;;3.35;0.77;;;15.90;71.40;;;;;;5058238;28;20092;-60
2022/09/17 12:42:31;;;;;;;3.67;0.70;;;15.90;70.40;;;;;;5076039;28;20234;-59
2022/09/17 12:45:29;;;;;;;2.17;0.75;;;16.00;67.60;;;;;;5076373;28;20024;-60
2022/09/17 12:48:23;;;;;;;1.67;0.60;;;16.00;68.70;;;;;;5077769;28;20102;-60
2022/09/17 12:50:50;;;;;;;4.28;0.55;;;16.20;67.20;;;;;;5073658;28;20120;-61
2022/09/17 12:53:36;;;;;;;5.25;0.82;;;16.10;68.40;;;;;;5075245;28;20088;-59
2022/09/17 12:56:12;;;;;;;1.98;0.70;;;16.10;68.80;;;;;;5081904;28;20106;-60
2022/09/17 12:58:51;;;;;;;1.90;0.75;;;16.30;70.90;;;;;;5075091;28;20043;-59
2022/09/17 13:01:27;;;;;;;1.73;0.93;;;16.30;66.70;;;;;;5073216;28;20025;-60
2022/09/17 13:04:09;;;;;;;2.15;0.50;;;16.20;65.30;;;;;;5060906;28;20147;-59
2022/09/17 13:07:12;;;;;;;2.67;0.80;;;16.00;65.20;;;;;;5066896;28;20028;-58
2022/09/17 13:09:56;;;;;;;2.05;0.65;;;16.20;66.60;;;;;;5038748;28;20080;-58
2022/09/17 13:12:48;;;;;;;2.45;0.88;;;16.30;66.60;;;;;;5074801;28;20186;-59
2022/09/17 13:15:20;;;;;;;5.35;0.73;;;16.50;64.80;;;;;;5071959;28;20037;-57
2022/09/17 13:17:52;;;;;;;2.33;0.60;;;16.50;63.50;;;;;;5073694;28;20067;-57
2022/09/17 13:21:02;;;;;;;5.20;0.77;;;16.40;65.70;;;;;;5072055;28;20112;-59
2022/09/17 13:23:54;;;;;;;2.72;0.80;;;16.50;65.70;;;;;;5072041;28;20063;-60